createdAt,value
2023-11-21T00:02:55.077Z,2.57
2023-11-21T00:07:58.748Z,5.80
2023-11-21T00:13:03.902Z,5.53
2023-11-21T00:18:07.921Z,2.13
2023-11-21T00:23:11.797Z,3.33
2023-11-21T00:28:15.434Z,3.77
2023-11-21T00:33:18.891Z,3.13
2023-11-21T00:38:22.716Z,2.77
2023-11-21T00:43:26.345Z,3.77
2023-11-21T00:48:29.892Z,2.80
2023-11-21T00:53:33.609Z,2.73
2023-11-21T00:58:36.993Z,5.73
2023-11-21T01:03:40.642Z,5.63
2023-11-21T01:08:46.162Z,3.87
2023-11-21T01:13:49.767Z,8.50
2023-11-21T01:18:53.480Z,2.77
2023-11-21T01:23:56.862Z,2.90
2023-11-21T01:29:00.429Z,7.90
2023-11-21T01:34:04.524Z,6.07
2023-11-21T01:39:09.948Z,4.07
2023-11-21T01:44:14.462Z,2.90
2023-11-21T01:49:19.060Z,3.23
2023-11-21T01:54:23.530Z,4.40
2023-11-21T01:59:28.592Z,4.90
2023-11-21T02:04:38.287Z,5.57
2023-11-21T02:09:43.775Z,3.87
2023-11-21T02:14:47.704Z,4.43
2023-11-21T02:19:52.443Z,4.00
2023-11-21T02:24:56.072Z,5.03
2023-11-21T02:30:00.922Z,27.60
2023-11-21T02:35:08.927Z,8.33
2023-11-21T02:40:19.101Z,8.60
2023-11-21T02:45:23.445Z,6.77
2023-11-21T02:50:28.113Z,3.80
2023-11-21T02:55:32.173Z,5.03
2023-11-21T03:00:36.007Z,3.73
2023-11-21T03:05:39.675Z,4.40
2023-11-21T03:10:43.314Z,3.70
2023-11-21T03:15:47.004Z,2.33
2023-11-21T03:20:53.576Z,2.30
2023-11-21T03:25:57.214Z,4.87
2023-11-21T03:31:00.980Z,4.37
2023-11-21T03:36:05.128Z,3.93
2023-11-21T03:41:11.269Z,3.87
2023-11-21T03:46:15.117Z,3.30
2023-11-21T03:51:18.715Z,3.37
2023-11-21T03:56:24.990Z,3.10
2023-11-21T04:01:28.714Z,2.40
2023-11-21T04:06:33.995Z,3.63
2023-11-21T04:11:37.615Z,3.43
2023-11-21T04:16:43.228Z,4.57
2023-11-21T04:21:47.231Z,7.83
2023-11-21T04:26:50.831Z,5.13
2023-11-21T04:31:55.366Z,6.33
2023-11-21T04:36:58.838Z,6.50
2023-11-21T04:42:03.411Z,4.10
2023-11-21T04:47:07.078Z,3.97
2023-11-21T04:52:11.026Z,4.33
2023-11-21T04:57:15.311Z,7.53
2023-11-21T05:02:30.532Z,5.70
2023-11-21T05:07:40.754Z,4.97
2023-11-21T05:12:44.535Z,3.17
2023-11-21T05:17:51.128Z,10.00
2023-11-21T05:22:54.953Z,9.70
2023-11-21T05:28:02.333Z,14.77
2023-11-21T05:33:06.630Z,17.33
2023-11-21T05:38:10.064Z,12.90
2023-11-21T05:43:13.679Z,14.93
2023-11-21T05:48:17.101Z,10.03
2023-11-21T05:53:20.884Z,4.77
2023-11-21T05:58:25.141Z,11.47
2023-11-21T06:03:29.819Z,10.73
2023-11-21T06:08:34.491Z,10.87
2023-11-21T06:13:39.088Z,14.20
2023-11-21T06:18:42.876Z,5.07
2023-11-21T06:23:46.585Z,5.57
2023-11-21T06:28:52.557Z,3.30
2023-11-21T06:33:56.657Z,3.17
2023-11-21T06:39:00.422Z,3.90
2023-11-21T06:44:05.869Z,2.43
2023-11-21T06:49:10.059Z,2.70
2023-11-21T06:54:14.739Z,3.87
2023-11-21T06:59:18.804Z,9.00
2023-11-21T07:04:22.359Z,3.43
2023-11-21T07:09:26.944Z,5.17
2023-11-21T07:14:30.517Z,8.03
2023-11-21T07:19:34.145Z,3.60
2023-11-21T07:24:38.489Z,2.77
2023-11-21T07:29:42.349Z,3.13
2023-11-21T07:34:46.527Z,6.33
2023-11-21T07:39:50.198Z,5.70
2023-11-21T07:44:54.226Z,7.80
2023-11-21T07:49:57.771Z,2.30
2023-11-21T07:55:01.428Z,3.57
2023-11-21T08:00:10.658Z,3.13
2023-11-21T08:05:24.757Z,5.63
2023-11-21T08:10:32.120Z,5.53
2023-11-21T08:15:36.830Z,6.40
2023-11-21T08:20:41.081Z,7.23
2023-11-21T08:25:48.310Z,3.50
2023-11-21T08:30:51.906Z,3.50
2023-11-21T08:35:56.108Z,5.53
2023-11-21T08:40:59.853Z,2.10
2023-11-21T08:46:04.306Z,3.07
2023-11-21T08:51:15.382Z,4.00
2023-11-21T08:56:19.764Z,2.30
2023-11-21T09:01:24.512Z,8.43
2023-11-21T09:06:28.440Z,9.60
2023-11-21T09:11:35.023Z,6.20
2023-11-21T09:16:39.965Z,3.03
2023-11-21T09:21:43.645Z,9.47
2023-11-21T09:26:47.160Z,7.90
2023-11-21T09:31:53.235Z,4.67
2023-11-21T09:36:56.789Z,2.47
2023-11-21T09:42:37.489Z,3.70
2023-11-21T09:47:41.233Z,3.47
2023-11-21T09:53:11.705Z,2.77
2023-11-21T09:58:16.340Z,4.53
2023-11-21T10:03:20.530Z,2.53
2023-11-21T10:08:38.935Z,23.23
2023-11-21T10:13:55.236Z,10.47
2023-11-21T10:19:09.026Z,18.37
2023-11-21T10:24:15.354Z,11.07
2023-11-21T10:29:19.761Z,9.90
2023-11-21T10:34:23.701Z,18.50
2023-11-21T10:39:31.872Z,22.67
2023-11-21T10:44:35.919Z,15.10
2023-11-21T10:49:41.651Z,11.13
2023-11-21T10:54:45.826Z,9.67
2023-11-21T10:59:53.252Z,6.80
2023-11-21T11:04:58.263Z,9.47
2023-11-21T11:10:02.013Z,17.10
2023-11-21T11:15:06.834Z,18.23
2023-11-21T11:20:23.302Z,23.87
2023-11-21T11:25:39.866Z,15.43
2023-11-21T11:31:18.298Z,58.77
2023-11-21T11:37:05.073Z,11.20
2023-11-21T11:42:13.439Z,7.80
2023-11-21T11:47:24.124Z,3.17
2023-11-21T11:52:44.169Z,23.83
2023-11-21T11:57:56.485Z,25.33
2023-11-21T12:03:04.805Z,11.73
2023-11-21T12:08:09.196Z,11.60
2023-11-21T12:13:16.231Z,11.27
2023-11-21T12:18:19.829Z,10.20
2023-11-21T12:23:23.561Z,14.67
2023-11-21T12:28:28.466Z,10.90
2023-11-21T12:33:32.003Z,24.60
2023-11-21T12:38:38.764Z,8.10
2023-11-21T12:43:42.499Z,21.03
2023-11-21T12:48:46.999Z,24.07
2023-11-21T12:53:51.167Z,6.93
2023-11-21T12:58:58.313Z,9.27
2023-11-21T13:04:03.442Z,6.87
2023-11-21T13:09:07.153Z,4.40
2023-11-21T13:14:12.436Z,1.97
2023-11-21T13:19:16.449Z,3.20
2023-11-21T13:24:20.037Z,6.83
2023-11-21T13:29:26.803Z,9.57
2023-11-21T13:34:34.135Z,11.03
2023-11-21T13:39:39.272Z,12.70
2023-11-21T13:44:46.256Z,8.97
2023-11-21T13:49:50.549Z,11.83
2023-11-21T13:54:54.759Z,9.10
2023-11-21T14:00:00.045Z,8.87
2023-11-21T14:05:10.392Z,9.67
2023-11-21T14:10:15.750Z,40.47
2023-11-21T14:15:20.483Z,32.70
2023-11-21T14:20:25.118Z,27.33
2023-11-21T14:25:29.545Z,23.23
2023-11-21T14:30:36.761Z,16.57
2023-11-21T14:35:40.343Z,18.40
2023-11-21T14:40:43.959Z,14.83
2023-11-21T14:45:47.572Z,27.33
2023-11-21T14:51:02.997Z,36.20
2023-11-21T14:56:08.926Z,37.60
2023-11-21T15:01:12.535Z,32.30
2023-11-21T15:06:22.299Z,24.47
2023-11-21T15:11:31.408Z,20.03
2023-11-21T15:16:41.506Z,46.17
2023-11-21T15:21:47.063Z,34.00
2023-11-21T15:26:51.583Z,34.90
2023-11-21T15:31:57.494Z,24.97
2023-11-21T15:37:01.476Z,23.80
2023-11-21T15:42:06.601Z,22.73
2023-11-21T15:47:10.298Z,14.97
2023-11-21T15:52:14.358Z,28.43
2023-11-21T15:57:19.536Z,29.27
2023-11-21T16:02:23.166Z,44.40
2023-11-21T16:07:26.790Z,53.27
2023-11-21T16:12:30.180Z,90.67
2023-11-21T16:17:34.995Z,115.33
2023-11-21T16:22:39.795Z,74.73
2023-11-21T16:27:44.582Z,38.00
2023-11-21T16:32:51.008Z,48.97
2023-11-21T16:37:54.678Z,22.80
2023-11-21T16:42:58.288Z,13.17
2023-11-21T16:48:04.021Z,9.83
2023-11-21T16:53:08.425Z,17.03
2023-11-21T16:58:12.300Z,18.87
2023-11-21T17:03:16.103Z,27.87
2023-11-21T17:08:20.747Z,23.33
2023-11-21T17:13:24.231Z,30.43
2023-11-21T17:18:28.448Z,30.73
2023-11-21T17:23:34.054Z,29.60
2023-11-21T17:28:38.778Z,49.93
2023-11-21T17:33:43.126Z,38.87
2023-11-21T17:38:47.352Z,43.47
2023-11-21T17:43:51.489Z,39.70
2023-11-21T17:48:55.902Z,33.43
2023-11-21T17:54:02.790Z,46.33
2023-11-21T17:59:07.510Z,45.40
2023-11-21T18:04:13.811Z,53.87
2023-11-21T18:09:18.212Z,60.70
2023-11-21T18:14:21.955Z,56.93
2023-11-21T18:19:25.627Z,63.70
2023-11-21T18:24:29.525Z,71.47
2023-11-21T18:29:33.368Z,67.70
2023-11-21T18:34:37.690Z,62.83
2023-11-21T18:39:41.198Z,57.10
2023-11-21T18:44:55.187Z,42.53
2023-11-21T18:50:02.627Z,32.77
2023-11-21T18:55:07.865Z,32.93
2023-11-21T19:00:13.540Z,35.83
2023-11-21T19:05:18.102Z,31.97
2023-11-21T19:10:22.482Z,45.97
2023-11-21T19:15:26.504Z,78.20
2023-11-21T19:20:30.258Z,75.03
2023-11-21T19:25:34.631Z,83.70
2023-11-21T19:30:41.245Z,75.27
2023-11-21T19:35:46.774Z,67.30
2023-11-21T19:40:50.730Z,60.87
2023-11-21T19:45:54.309Z,34.77
2023-11-21T19:50:57.926Z,29.13
2023-11-21T19:56:15.910Z,24.07
2023-11-21T20:01:20.986Z,25.57
2023-11-21T20:06:25.717Z,29.27
2023-11-21T20:11:32.772Z,36.03
2023-11-21T20:16:41.650Z,93.87
2023-11-21T20:21:47.334Z,41.23
2023-11-21T20:26:51.283Z,44.43
2023-11-21T20:31:54.951Z,27.77
2023-11-21T20:36:59.299Z,29.03
2023-11-21T20:42:03.088Z,27.83
2023-11-21T20:47:12.227Z,22.70
2023-11-21T20:52:16.788Z,25.07
2023-11-21T20:57:20.452Z,33.17
2023-11-21T21:02:25.301Z,29.97
2023-11-21T21:07:30.382Z,25.57
2023-11-21T21:12:33.935Z,22.97
2023-11-21T21:17:41.798Z,19.90
2023-11-21T21:22:46.328Z,20.70
2023-11-21T21:27:50.194Z,23.63
2023-11-21T21:32:53.696Z,33.57
2023-11-21T21:37:57.935Z,32.40
2023-11-21T21:43:02.291Z,36.03
2023-11-21T21:48:06.589Z,27.53
2023-11-21T21:53:13.698Z,35.07
2023-11-21T21:58:17.272Z,32.17
2023-11-21T22:03:21.074Z,34.47
2023-11-21T22:08:28.879Z,55.30
2023-11-21T22:13:32.492Z,42.50
2023-11-21T22:18:38.300Z,34.67
2023-11-21T22:23:41.966Z,29.60
2023-11-21T22:28:45.793Z,25.77
2023-11-21T22:33:49.394Z,22.50
2023-11-21T22:38:52.943Z,35.27
2023-11-21T22:43:56.633Z,30.80
2023-11-21T22:49:00.332Z,44.17
2023-11-21T22:54:04.249Z,42.37
2023-11-21T22:59:07.851Z,28.97
2023-11-21T23:04:11.640Z,22.97
2023-11-21T23:09:17.078Z,24.73
2023-11-21T23:14:20.784Z,40.90
2023-11-21T23:19:24.963Z,40.30
2023-11-21T23:24:29.105Z,35.47
2023-11-21T23:29:32.720Z,32.20
2023-11-21T23:34:38.863Z,38.20
2023-11-21T23:39:42.379Z,72.37
2023-11-21T23:44:48.493Z,25.70
2023-11-21T23:49:53.009Z,21.93
2023-11-21T23:54:57.760Z,24.00
